Time;durP1;ratioP1;P1;durP2;ratioP2;P2;SDS_P1;SDS_P2;PMS_P1;PMS_P2;Temp;Humidity;BMP_temperature;BMP_pressure;BME280_temperature;BME280_humidity;BME280_pressure;Samples;Min_cycle;Max_cycle;Signal;HPM_P1;HPM_P2
2022/04/03 00:00:23;;;;;;;4.45;1.70;;;1.70;61.00;;;;;;5051442;28;20092;-67
2022/04/03 00:02:49;;;;;;;2.97;2.10;;;1.70;61.00;;;;;;5051374;28;20021;-67
2022/04/03 00:05:14;;;;;;;4.75;2.60;;;1.80;60.60;;;;;;5051279;28;20119;-68
2022/04/03 00:07:40;;;;;;;9.75;3.17;;;1.70;60.80;;;;;;5032876;28;20025;-68
2022/04/03 00:10:06;;;;;;;5.88;3.85;;;1.70;61.10;;;;;;5050637;28;20021;-69
2022/04/03 00:12:32;;;;;;;4.47;2.42;;;1.70;61.30;;;;;;5051734;28;20154;-69
2022/04/03 00:14:57;;;;;;;5.90;2.20;;;1.80;61.00;;;;;;5051617;28;20025;-67
2022/04/03 00:17:23;;;;;;;3.78;2.30;;;1.80;60.70;;;;;;5050446;28;20025;-67
2022/04/03 00:19:48;;;;;;;4.75;1.92;;;1.80;61.00;;;;;;5051420;28;20099;-67
2022/04/03 00:22:14;;;;;;;6.22;2.50;;;1.80;60.40;;;;;;5051390;28;20024;-67
2022/04/03 00:24:41;;;;;;;3.83;2.40;;;1.80;61.00;;;;;;5033339;28;20056;-67
2022/04/03 00:27:07;;;;;;;4.97;2.03;;;1.70;60.90;;;;;;5050604;28;20025;-65
2022/04/03 00:29:32;;;;;;;3.63;1.95;;;1.70;60.70;;;;;;5051504;28;20032;-67
2022/04/03 00:31:58;;;;;;;5.88;2.88;;;1.80;60.30;;;;;;5050760;28;20425;-67
2022/04/03 00:34:24;;;;;;;6.13;2.97;;;1.80;60.90;;;;;;5051379;28;20056;-65
2022/04/03 00:36:49;;;;;;;6.90;2.90;;;1.70;61.40;;;;;;5051536;28;20029;-68
2022/04/03 00:39:15;;;;;;;5.50;2.10;;;1.80;59.90;;;;;;5050650;28;20032;-68
2022/04/03 00:41:41;;;;;;;6.82;1.80;;;1.70;60.60;;;;;;5051093;28;20033;-68
2022/04/03 00:44:06;;;;;;;5.60;2.25;;;1.70;59.90;;;;;;5050685;28;20100;-67
2022/04/03 00:46:34;;;;;;;2.63;1.38;;;1.70;59.80;;;;;;5033127;28;20044;-68
2022/04/03 00:49:01;;;;;;;2.67;2.03;;;1.70;59.90;;;;;;5050295;28;20025;-69
2022/04/03 00:51:27;;;;;;;5.63;2.30;;;1.70;59.80;;;;;;5051182;28;20035;-67
2022/04/03 00:53:53;;;;;;;4.68;2.50;;;1.70;59.80;;;;;;5050719;28;20029;-67
2022/04/03 00:56:19;;;;;;;5.15;1.65;;;1.60;60.20;;;;;;5050630;28;20493;-68
2022/04/03 00:58:44;;;;;;;4.57;2.30;;;1.60;60.10;;;;;;5050615;28;20477;-68
2022/04/03 01:01:11;;;;;;;6.10;2.10;;;1.60;60.00;;;;;;5050679;28;20025;-67
2022/04/03 01:03:37;;;;;;;3.08;1.80;;;1.60;59.80;;;;;;5050893;28;20025;-67
2022/04/03 01:06:02;;;;;;;5.20;2.17;;;1.60;60.00;;;;;;5050447;28;20109;-67
2022/04/03 01:08:28;;;;;;;4.15;2.08;;;1.60;60.00;;;;;;5050362;28;20013;-68
2022/04/03 01:10:54;;;;;;;2.88;2.10;;;1.50;59.70;;;;;;5050734;28;20044;-66
2022/04/03 01:13:21;;;;;;;5.18;1.75;;;1.50;59.80;;;;;;5050719;28;20025;-65
2022/04/03 01:15:59;;;;;;;3.40;1.88;;;1.50;59.80;;;;;;5050298;28;20025;-66
2022/04/03 01:18:25;;;;;;;5.85;1.85;;;1.50;59.60;;;;;;5049908;28;20079;-66
2022/04/03 01:20:55;;;;;;;3.20;1.90;;;1.30;59.80;;;;;;5050522;28;20035;-68
2022/04/03 01:23:22;;;;;;;5.93;2.67;;;1.20;59.70;;;;;;5052377;28;20025;-66
2022/04/03 01:25:47;;;;;;;5.35;2.30;;;1.30;60.50;;;;;;5054056;28;20028;-66
2022/04/03 01:28:13;;;;;;;6.72;2.58;;;1.30;60.60;;;;;;5053157;28;20423;-67
2022/04/03 01:30:38;;;;;;;2.92;1.98;;;1.40;61.40;;;;;;5054489;28;20028;-67
2022/04/03 01:33:04;;;;;;;6.50;1.92;;;1.30;59.60;;;;;;5054380;28;20044;-67
2022/04/03 01:35:30;;;;;;;3.85;2.10;;;1.30;59.50;;;;;;5054041;28;20047;-67
2022/04/03 01:37:55;;;;;;;6.32;2.17;;;1.30;58.80;;;;;;5053371;28;20090;-67
2022/04/03 01:40:21;;;;;;;8.20;3.38;;;1.20;58.50;;;;;;5036059;28;20544;-67
2022/04/03 01:42:46;;;;;;;6.82;2.63;;;1.20;60.30;;;;;;5054048;28;20024;-68
2022/04/03 01:45:12;;;;;;;6.95;3.13;;;1.10;59.10;;;;;;5053788;28;20371;-67
2022/04/03 01:47:38;;;;;;;3.75;1.92;;;1.00;59.80;;;;;;5041217;28;20419;-68
2022/04/03 01:50:05;;;;;;;3.63;2.05;;;1.10;59.60;;;;;;5035721;28;20017;-67
2022/04/03 01:52:31;;;;;;;5.97;2.20;;;1.00;59.20;;;;;;5053774;28;20021;-66
2022/04/03 01:54:56;;;;;;;2.70;1.52;;;0.80;60.00;;;;;;5032908;28;20135;-67
2022/04/03 01:57:22;;;;;;;4.38;2.30;;;0.90;60.80;;;;;;5053768;28;20033;-66
2022/04/03 01:59:48;;;;;;;5.13;1.85;;;1.00;60.70;;;;;;5053982;28;20037;-67
2022/04/03 02:02:13;;;;;;;3.90;1.90;;;0.80;60.20;;;;;;5053960;28;20025;-67
2022/04/03 02:04:39;;;;;;;3.80;2.50;;;0.70;60.40;;;;;;5053814;28;20024;-67
2022/04/03 02:07:04;;;;;;;3.22;1.70;;;0.70;60.40;;;;;;5053777;28;20486;-67
2022/04/03 02:09:30;;;;;;;7.50;2.28;;;0.80;60.90;;;;;;5053974;28;20021;-68
2022/04/03 02:11:57;;;;;;;6.22;1.85;;;0.80;61.20;;;;;;5053684;28;20029;-67
2022/04/03 02:14:26;;;;;;;8.02;2.10;;;0.80;61.10;;;;;;5053842;28;20024;-68
2022/04/03 02:16:57;;;;;;;4.28;1.83;;;0.70;60.70;;;;;;5069257;28;20087;-68
2022/04/03 02:19:22;;;;;;;3.90;2.03;;;0.60;60.60;;;;;;5053635;28;20052;-67
2022/04/03 02:21:48;;;;;;;6.25;2.15;;;0.70;60.40;;;;;;5053655;28;20025;-67
2022/04/03 02:24:14;;;;;;;4.00;1.95;;;0.70;61.20;;;;;;5053962;28;20037;-67
2022/04/03 02:26:40;;;;;;;2.47;1.77;;;0.70;61.20;;;;;;5053580;28;20028;-67
2022/04/03 02:29:06;;;;;;;4.50;1.70;;;0.60;60.60;;;;;;5053574;28;20497;-66
2022/04/03 02:31:31;;;;;;;4.13;2.30;;;0.60;61.50;;;;;;5053949;28;20021;-67
2022/04/03 02:33:57;;;;;;;5.53;2.38;;;0.60;62.20;;;;;;5052927;28;20500;-66
2022/04/03 02:36:23;;;;;;;3.30;2.05;;;0.60;61.90;;;;;;5053661;28;20101;-67
2022/04/03 02:38:49;;;;;;;8.13;2.53;;;0.60;61.70;;;;;;5053701;28;20053;-68
2022/04/03 02:41:14;;;;;;;4.38;1.80;;;0.50;61.90;;;;;;5053711;28;20387;-67
2022/04/03 02:43:40;;;;;;;3.85;1.77;;;0.50;62.20;;;;;;5053432;28;20021;-67
2022/04/03 02:46:06;;;;;;;5.22;1.67;;;0.50;62.40;;;;;;5053605;28;20024;-67
2022/04/03 02:48:33;;;;;;;5.15;1.92;;;0.40;62.40;;;;;;5035159;28;20556;-67
2022/04/03 02:50:59;;;;;;;6.28;2.17;;;0.20;62.20;;;;;;5053389;28;20033;-68
2022/04/03 02:53:25;;;;;;;5.32;2.42;;;0.10;63.00;;;;;;5053237;28;20033;-67
2022/04/03 02:55:51;;;;;;;4.13;1.83;;;0.10;63.70;;;;;;5035137;28;20048;-67
2022/04/03 02:58:17;;;;;;;6.20;1.92;;;0.10;64.30;;;;;;5052757;28;20172;-67
2022/04/03 03:00:42;;;;;;;4.18;1.88;;;0.00;62.90;;;;;;5053124;28;20025;-67
2022/04/03 03:03:09;;;;;;;3.35;2.30;;;-3276.60;63.90;;;;;;5052911;28;20029;-68
2022/04/03 03:05:34;;;;;;;3.95;2.00;;;-3276.60;65.00;;;;;;5052759;28;20383;-67
2022/04/03 03:08:01;;;;;;;3.65;1.70;;;-3276.50;64.90;;;;;;5052572;28;21171;-67
2022/04/03 03:10:27;;;;;;;2.40;1.77;;;-3276.40;65.90;;;;;;5052649;28;20023;-67
2022/04/03 03:12:53;;;;;;;5.15;2.13;;;-3276.30;66.10;;;;;;5053158;28;20028;-67
2022/04/03 03:15:19;;;;;;;4.50;2.35;;;-3276.20;66.90;;;;;;5052610;28;20032;-66
2022/04/03 03:17:45;;;;;;;6.38;2.72;;;-3276.10;67.50;;;;;;5052171;28;20025;-67
2022/04/03 03:20:12;;;;;;;5.65;2.97;;;-3276.00;68.20;;;;;;5034842;28;20021;-66
2022/04/03 03:22:38;;;;;;;3.17;2.10;;;-3275.90;68.90;;;;;;5052568;28;20453;-67
2022/04/03 03:25:05;;;;;;;4.10;1.92;;;-3275.80;69.40;;;;;;5052218;28;20100;-67
2022/04/03 03:27:31;;;;;;;5.38;2.55;;;-3275.70;69.70;;;;;;5052572;28;20036;-66
2022/04/03 03:29:57;;;;;;;2.90;1.85;;;-3275.80;70.20;;;;;;5052414;28;20075;-67
2022/04/03 03:32:24;;;;;;;5.85;2.15;;;-3275.70;70.20;;;;;;5052635;28;20014;-66
2022/04/03 03:34:54;;;;;;;3.55;2.08;;;-3275.60;70.60;;;;;;5067130;22;20124;-70
2022/04/03 03:37:20;;;;;;;5.90;3.63;;;-3275.50;71.00;;;;;;5037872;28;20029;-70
2022/04/03 03:39:46;;;;;;;6.57;2.13;;;-3275.40;71.50;;;;;;5032051;28;20033;-70
2022/04/03 03:42:13;;;;;;;3.40;1.98;;;-3275.50;71.70;;;;;;5032262;28;20053;-70
2022/04/03 03:44:39;;;;;;;6.15;2.75;;;-3275.60;71.30;;;;;;5013955;28;20542;-69
2022/04/03 03:47:05;;;;;;;3.67;2.50;;;-3275.50;71.40;;;;;;5034452;28;20112;-69
2022/04/03 03:49:31;;;;;;;5.57;2.70;;;-3275.40;72.30;;;;;;5045932;28;20040;-69
2022/04/03 03:51:56;;;;;;;3.75;2.38;;;-3275.40;72.40;;;;;;5039505;28;20021;-69
2022/04/03 03:54:22;;;;;;;6.25;2.30;;;-3275.30;72.30;;;;;;5051990;28;20081;-69
2022/04/03 03:56:48;;;;;;;6.10;2.55;;;-3275.20;72.70;;;;;;5041571;28;20369;-69
2022/04/03 03:59:14;;;;;;;3.60;2.08;;;-3275.20;73.00;;;;;;5030380;28;20057;-70
2022/04/03 04:01:40;;;;;;;5.90;2.80;;;-3275.20;73.00;;;;;;5031562;28;20033;-69
2022/04/03 04:04:06;;;;;;;5.68;2.35;;;-3275.10;73.50;;;;;;5035238;28;20021;-69
2022/04/03 04:06:31;;;;;;;7.40;2.63;;;-3275.00;73.50;;;;;;5031532;28;20533;-68
2022/04/03 04:08:57;;;;;;;8.73;3.00;;;-3275.10;73.90;;;;;;5030819;28;20013;-70
2022/04/03 04:11:22;;;;;;;8.32;3.50;;;-3275.00;74.50;;;;;;5031595;28;20026;-70
2022/04/03 04:13:48;;;;;;;4.38;2.60;;;-3275.00;74.30;;;;;;5031385;28;20390;-69
2022/04/03 04:16:14;;;;;;;3.60;2.45;;;-3275.00;74.50;;;;;;5044141;28;20091;-70
2022/04/03 04:18:39;;;;;;;4.40;2.42;;;-3275.00;74.70;;;;;;5030632;28;20433;-69
2022/04/03 04:21:05;;;;;;;5.65;3.00;;;-3275.00;74.60;;;;;;5031265;28;20022;-69
2022/04/03 04:23:31;;;;;;;3.80;2.28;;;-3275.00;74.80;;;;;;5035310;28;20021;-69
2022/04/03 04:25:58;;;;;;;7.43;3.00;;;-3275.00;74.60;;;;;;5031591;28;20021;-70
2022/04/03 04:28:24;;;;;;;3.88;2.50;;;-3275.00;74.70;;;;;;5030797;28;20020;-70
2022/04/03 04:30:49;;;;;;;5.13;2.92;;;-3274.90;75.10;;;;;;5031432;28;20025;-70
2022/04/03 04:33:15;;;;;;;4.50;2.63;;;-3274.90;75.10;;;;;;5031704;28;20696;-69
2022/04/03 04:35:41;;;;;;;6.32;2.67;;;-3274.80;75.30;;;;;;5031523;28;20044;-69
2022/04/03 04:38:06;;;;;;;5.68;3.40;;;-3274.80;75.40;;;;;;5030549;28;20025;-70
2022/04/03 04:40:32;;;;;;;6.20;2.88;;;-3274.80;75.60;;;;;;5031989;28;20025;-69
2022/04/03 04:42:58;;;;;;;5.47;2.88;;;-3274.80;75.70;;;;;;5031030;28;20710;-70
2022/04/03 04:45:27;;;;;;;4.45;2.60;;;-3274.80;75.60;;;;;;5030672;28;20040;-69
2022/04/03 04:47:59;;;;;;;5.72;2.47;;;-3274.80;75.60;;;;;;5030257;28;20449;-69
2022/04/03 04:50:26;;;;;;;4.75;3.03;;;-3274.80;75.80;;;;;;5030981;28;20016;-70
2022/04/03 04:52:52;;;;;;;8.05;3.10;;;-3274.80;75.80;;;;;;5030964;28;20021;-69
2022/04/03 04:55:19;;;;;;;4.65;2.63;;;-3274.80;75.80;;;;;;5030768;28;20136;-70
2022/04/03 04:57:53;;;;;;;6.15;2.45;;;-3274.90;75.50;;;;;;5035523;28;20499;-69
2022/04/03 05:00:20;;;;;;;7.78;2.60;;;-3275.00;75.50;;;;;;5035037;28;20033;-69
2022/04/03 05:02:46;;;;;;;6.45;2.72;;;-3275.10;75.10;;;;;;5034950;28;20391;-69
2022/04/03 05:05:18;;;;;;;4.60;2.60;;;-3275.30;75.20;;;;;;5034213;28;20037;-69
2022/04/03 05:07:44;;;;;;;6.03;2.78;;;-3275.90;74.00;;;;;;5033933;28;20430;-70
2022/04/03 05:10:12;;;;;;;6.60;2.58;;;-3276.30;71.70;;;;;;5035049;28;20450;-70
2022/04/03 05:12:38;;;;;;;4.43;2.35;;;0.00;69.80;;;;;;5043149;28;20031;-70
2022/04/03 05:15:06;;;;;;;4.63;2.15;;;0.10;68.50;;;;;;5046684;28;20144;-72
2022/04/03 05:17:32;;;;;;;3.95;2.70;;;0.70;67.30;;;;;;5033641;28;20541;-70
2022/04/03 05:19:59;;;;;;;4.97;2.22;;;1.30;65.10;;;;;;5034537;28;20037;-69
2022/04/03 05:22:26;;;;;;;5.00;2.45;;;2.10;62.50;;;;;;5034638;28;20120;-71
2022/04/03 05:24:52;;;;;;;4.28;1.80;;;3.10;58.70;;;;;;5034594;28;20143;-70
2022/04/03 05:27:19;;;;;;;3.03;1.90;;;4.20;56.30;;;;;;5035909;28;20548;-70
2022/04/03 05:29:45;;;;;;;3.22;2.28;;;5.20;51.90;;;;;;5041773;28;20021;-69
2022/04/03 05:32:10;;;;;;;3.85;2.05;;;5.80;49.90;;;;;;5036469;28;20021;-69
2022/04/03 05:34:36;;;;;;;3.33;1.98;;;6.50;47.40;;;;;;5050346;28;20038;-70
2022/04/03 05:37:02;;;;;;;3.55;2.03;;;7.30;44.70;;;;;;5044323;28;20112;-69
2022/04/03 05:39:27;;;;;;;4.65;2.13;;;7.90;43.30;;;;;;5027564;28;20025;-69
2022/04/03 05:41:55;;;;;;;2.85;2.05;;;8.20;42.70;;;;;;5036186;28;20099;-71
2022/04/03 05:44:21;;;;;;;5.63;2.42;;;9.00;40.60;;;;;;5034160;28;20194;-69
2022/04/03 05:46:47;;;;;;;6.80;2.83;;;9.40;39.40;;;;;;5033946;28;20025;-69
2022/04/03 05:49:13;;;;;;;3.42;1.95;;;9.80;38.30;;;;;;5033336;28;20037;-69
2022/04/03 05:51:38;;;;;;;3.72;1.90;;;10.30;37.50;;;;;;5034063;28;20037;-69
2022/04/03 05:54:04;;;;;;;4.10;1.83;;;9.80;36.80;;;;;;5028215;28;20021;-69
2022/04/03 05:56:31;;;;;;;4.05;2.08;;;10.50;36.40;;;;;;5042498;28;20025;-71
2022/04/03 05:58:57;;;;;;;5.97;1.95;;;10.70;35.50;;;;;;5031393;28;20163;-69
2022/04/03 06:01:23;;;;;;;4.50;1.60;;;10.50;36.20;;;;;;5030887;28;20029;-70
2022/04/03 06:03:48;;;;;;;3.40;1.85;;;10.70;35.70;;;;;;5030123;28;20022;-69
2022/04/03 06:06:14;;;;;;;3.75;1.90;;;11.40;34.80;;;;;;5016958;28;20013;-70
2022/04/03 06:08:40;;;;;;;1.80;1.60;;;11.90;33.90;;;;;;5049649;28;20025;-70
2022/04/03 06:11:06;;;;;;;5.63;2.55;;;12.30;32.90;;;;;;5051822;28;20151;-70
2022/04/03 06:13:32;;;;;;;4.95;2.05;;;12.10;32.80;;;;;;5051609;28;20372;-69
2022/04/03 06:15:57;;;;;;;3.63;2.28;;;12.00;32.70;;;;;;5037210;28;20036;-69
2022/04/03 06:18:23;;;;;;;4.15;2.10;;;12.40;32.20;;;;;;5032893;28;20025;-70
2022/04/03 06:20:49;;;;;;;4.63;2.10;;;12.10;32.20;;;;;;5042937;28;20029;-70
2022/04/03 06:23:17;;;;;;;4.65;2.40;;;11.50;33.00;;;;;;5052970;28;20080;-71
2022/04/03 06:25:44;;;;;;;3.78;2.00;;;10.30;34.20;;;;;;5031704;28;20035;-71
2022/04/03 06:28:10;;;;;;;5.18;2.10;;;9.80;36.30;;;;;;5044095;28;20041;-71
2022/04/03 06:30:36;;;;;;;3.70;1.83;;;10.40;36.30;;;;;;5038766;28;20025;-71
2022/04/03 06:33:02;;;;;;;3.30;2.00;;;11.50;35.00;;;;;;5042847;28;20068;-72
2022/04/03 06:35:28;;;;;;;2.85;1.95;;;12.00;33.70;;;;;;5034002;28;20064;-71
2022/04/03 06:37:53;;;;;;;7.78;2.10;;;12.00;34.00;;;;;;5035158;28;20497;-69
2022/04/03 06:40:19;;;;;;;3.70;2.30;;;11.80;33.30;;;;;;5019447;28;20025;-71
2022/04/03 06:42:45;;;;;;;6.50;2.08;;;12.60;32.70;;;;;;5052207;28;20053;-72
2022/04/03 06:45:11;;;;;;;6.00;2.42;;;14.00;30.80;;;;;;5027549;28;20044;-72
2022/04/03 06:47:37;;;;;;;3.88;1.67;;;14.80;29.50;;;;;;5040744;28;20021;-70
2022/04/03 06:50:06;;;;;;;2.67;1.58;;;15.40;29.70;;;;;;5043109;28;20076;-72
2022/04/03 06:52:32;;;;;;;2.45;1.75;;;15.70;28.20;;;;;;5032376;28;20029;-71
2022/04/03 06:54:57;;;;;;;3.47;2.00;;;15.70;28.30;;;;;;5048184;28;20035;-70
2022/04/03 06:57:23;;;;;;;3.17;1.75;;;16.00;27.00;;;;;;5034107;28;20029;-71
2022/04/03 06:59:48;;;;;;;4.55;1.73;;;15.70;28.20;;;;;;5032828;28;20040;-70
2022/04/03 07:02:14;;;;;;;5.50;2.20;;;15.70;27.50;;;;;;5032922;28;20022;-71
2022/04/03 07:04:40;;;;;;;3.80;2.13;;;15.70;27.20;;;;;;5047454;28;20024;-71
2022/04/03 07:07:05;;;;;;;2.85;1.40;;;15.70;27.20;;;;;;5052181;28;20017;-70
2022/04/03 07:09:31;;;;;;;2.90;1.92;;;15.50;27.20;;;;;;5051614;28;20610;-70
2022/04/03 07:11:57;;;;;;;3.22;1.90;;;15.30;27.50;;;;;;5029436;28;20105;-72
2022/04/03 07:14:23;;;;;;;3.78;2.25;;;14.60;27.70;;;;;;5049277;28;20473;-71
2022/04/03 07:16:49;;;;;;;3.55;1.60;;;14.20;28.60;;;;;;5034958;28;20104;-72
2022/04/03 07:19:14;;;;;;;3.55;1.40;;;14.60;28.90;;;;;;5052249;28;20060;-70
2022/04/03 07:21:40;;;;;;;3.17;1.88;;;14.10;28.50;;;;;;5052896;28;20025;-71
2022/04/03 07:24:06;;;;;;;7.60;2.05;;;14.00;28.40;;;;;;5052393;28;20021;-68
2022/04/03 07:26:32;;;;;;;4.45;2.30;;;13.00;30.00;;;;;;5036136;28;20021;-71
2022/04/03 07:28:59;;;;;;;4.25;1.83;;;12.10;31.50;;;;;;5029860;28;20075;-72
2022/04/03 07:31:25;;;;;;;3.70;2.05;;;12.00;32.00;;;;;;5032356;28;20041;-70
2022/04/03 07:33:51;;;;;;;6.78;2.10;;;12.50;31.30;;;;;;5049640;28;20017;-71
2022/04/03 07:36:17;;;;;;;4.22;2.13;;;13.00;31.50;;;;;;5044048;28;20095;-69
2022/04/03 07:38:42;;;;;;;4.75;2.20;;;13.20;30.90;;;;;;5035045;28;20054;-70
2022/04/03 07:41:08;;;;;;;6.47;2.00;;;14.30;29.70;;;;;;5036894;28;20087;-69
2022/04/03 07:43:34;;;;;;;3.80;1.92;;;14.00;28.50;;;;;;5047876;28;20180;-70
2022/04/03 07:45:59;;;;;;;2.58;1.90;;;14.00;27.90;;;;;;5039128;28;20048;-71
2022/04/03 07:48:25;;;;;;;5.53;1.83;;;13.40;29.50;;;;;;5043665;28;20017;-69
2022/04/03 07:50:51;;;;;;;4.55;1.90;;;14.10;29.30;;;;;;5032094;28;20730;-64
2022/04/03 07:53:18;;;;;;;3.63;2.25;;;15.00;31.10;;;;;;5049147;28;20416;-70
2022/04/03 07:55:43;;;;;;;2.95;2.03;;;15.10;28.30;;;;;;5045394;28;20025;-65
2022/04/03 07:58:09;;;;;;;5.07;2.58;;;15.20;26.40;;;;;;5046905;28;20100;-73
2022/04/03 08:00:35;;;;;;;3.55;1.67;;;14.80;29.30;;;;;;5047730;28;20085;-71
2022/04/03 08:03:00;;;;;;;3.72;2.42;;;15.40;27.90;;;;;;5025412;28;20030;-68
2022/04/03 08:05:26;;;;;;;24.77;13.13;;;15.30;28.60;;;;;;5013798;28;20025;-67
2022/04/03 08:07:51;;;;;;;3.42;2.00;;;15.30;27.50;;;;;;5033609;28;20033;-73
2022/04/03 08:10:19;;;;;;;3.63;1.98;;;13.60;27.90;;;;;;5037099;28;20032;-75
2022/04/03 08:12:46;;;;;;;6.93;4.18;;;11.90;30.70;;;;;;5019605;28;20033;-73
2022/04/03 08:15:13;;;;;;;7.68;3.65;;;11.80;31.80;;;;;;5024437;28;20029;-74
2022/04/03 08:17:39;;;;;;;10.50;6.03;;;13.00;32.50;;;;;;5040751;28;20029;-72
2022/04/03 08:20:10;;;;;;;4.38;2.05;;;14.70;30.30;;;;;;5051781;28;20028;-73
2022/04/03 08:22:37;;;;;;;5.50;1.63;;;16.20;27.60;;;;;;5051551;28;20546;-73
2022/04/03 08:25:05;;;;;;;5.45;3.35;;;17.20;24.50;;;;;;5051202;28;20040;-73
2022/04/03 08:27:52;;;;;;;1.95;1.67;;;17.10;27.20;;;;;;5051307;28;20082;-76
2022/04/03 08:30:22;;;;;;;6.43;1.95;;;16.10;25.30;;;;;;5043049;28;20013;-73
2022/04/03 08:32:48;;;;;;;3.25;2.22;;;15.20;27.10;;;;;;5031099;28;20025;-73
2022/04/03 08:35:14;;;;;;;2.58;1.33;;;14.00;27.30;;;;;;5031339;28;20446;-72
2022/04/03 08:37:40;;;;;;;3.63;2.00;;;12.40;28.20;;;;;;5030874;28;20025;-72
2022/04/03 08:40:07;;;;;;;2.85;1.73;;;11.40;31.20;;;;;;5041896;28;20462;-72
2022/04/03 08:42:33;;;;;;;3.05;1.73;;;10.60;31.70;;;;;;5051026;28;20033;-71
2022/04/03 08:44:59;;;;;;;1.98;1.60;;;10.00;33.40;;;;;;5051149;28;20025;-72
2022/04/03 08:47:26;;;;;;;4.53;1.65;;;10.10;34.40;;;;;;5045401;28;20516;-71
2022/04/03 08:50:01;;;;;;;3.45;1.52;;;10.40;34.00;;;;;;5031628;28;20378;-71
2022/04/03 08:52:27;;;;;;;3.92;1.90;;;10.60;32.70;;;;;;5045497;28;20050;-72
2022/04/03 08:54:53;;;;;;;3.13;1.73;;;10.70;33.30;;;;;;5050973;28;20035;-72
2022/04/03 08:57:20;;;;;;;2.85;1.52;;;10.40;33.80;;;;;;5050976;28;20395;-69
2022/04/03 08:59:46;;;;;;;2.20;1.17;;;10.30;33.50;;;;;;5051210;28;20088;-70
2022/04/03 09:02:14;;;;;;;1.92;1.40;;;10.00;32.90;;;;;;5051126;28;20445;-72
2022/04/03 09:04:40;;;;;;;4.82;1.40;;;9.60;32.10;;;;;;5051001;28;20060;-68
2022/04/03 09:07:06;;;;;;;2.20;1.35;;;9.60;33.20;;;;;;5032730;28;20041;-67
2022/04/03 09:09:31;;;;;;;2.47;1.70;;;9.80;33.80;;;;;;5050899;28;20021;-71
2022/04/03 09:12:11;;;;;;;2.38;1.52;;;9.00;32.80;;;;;;5051089;28;20021;-72
2022/04/03 09:14:50;;;;;;;2.97;1.40;;;8.80;34.70;;;;;;5050688;28;20422;-69
2022/04/03 09:17:44;;;;;;;3.88;1.80;;;8.90;35.60;;;;;;5046348;28;20025;-71
2022/04/03 09:20:17;;;;;;;3.67;1.90;;;9.00;35.00;;;;;;5019193;28;20051;-72
2022/04/03 09:22:53;;;;;;;1.95;1.30;;;9.30;35.50;;;;;;5040996;28;20079;-70
2022/04/03 09:25:31;;;;;;;3.00;1.40;;;9.50;32.90;;;;;;5039797;28;20021;-68
2022/04/03 09:28:02;;;;;;;2.72;1.48;;;8.80;31.30;;;;;;5041159;28;20391;-73
2022/04/03 09:30:36;;;;;;;2.47;1.55;;;8.70;33.30;;;;;;5035630;28;20021;-75
2022/04/03 09:33:03;;;;;;;3.17;1.60;;;8.60;32.20;;;;;;5037373;28;20032;-70
2022/04/03 09:35:30;;;;;;;2.00;1.27;;;8.40;35.20;;;;;;5053384;22;20041;-73
2022/04/03 09:38:15;;;;;;;3.33;1.40;;;8.10;32.10;;;;;;5030061;28;20025;-71
2022/04/03 09:40:44;;;;;;;3.78;1.15;;;8.20;32.60;;;;;;5031397;28;20021;-73
2022/04/03 09:43:18;;;;;;;3.10;1.10;;;8.10;34.30;;;;;;5050509;28;20531;-72
2022/04/03 09:45:49;;;;;;;3.97;1.55;;;8.20;31.00;;;;;;5055316;28;20123;-72
2022/04/03 09:48:28;;;;;;;4.15;1.20;;;8.00;30.20;;;;;;5055725;28;20100;-72
2022/04/03 09:50:55;;;;;;;3.75;1.58;;;7.70;29.80;;;;;;5058511;28;20141;-72
2022/04/03 09:53:21;;;;;;;2.00;1.10;;;7.30;30.30;;;;;;5037948;28;20033;-71
2022/04/03 09:55:47;;;;;;;2.67;1.33;;;7.50;32.70;;;;;;5036365;28;20025;-71
2022/04/03 09:58:12;;;;;;;1.92;1.20;;;7.00;31.20;;;;;;5040166;28;20545;-73
2022/04/03 10:00:38;;;;;;;4.20;2.05;;;6.80;32.70;;;;;;5055418;28;20017;-71
2022/04/03 10:03:04;;;;;;;2.85;1.30;;;6.90;34.00;;;;;;5032327;28;20044;-73
2022/04/03 10:05:31;;;;;;;2.88;1.50;;;6.90;33.70;;;;;;5045110;28;20040;-72
2022/04/03 10:08:01;;;;;;;5.13;1.48;;;6.80;33.00;;;;;;5044754;28;20039;-71
2022/04/03 10:10:28;;;;;;;3.80;2.28;;;6.70;32.60;;;;;;5027128;28;20060;-71
2022/04/03 10:12:55;;;;;;;3.17;1.58;;;6.70;33.30;;;;;;5016655;28;20022;-70
2022/04/03 10:15:24;;;;;;;3.55;1.20;;;6.30;31.90;;;;;;5034046;28;20259;-72
2022/04/03 10:17:50;;;;;;;2.65;1.55;;;6.30;32.80;;;;;;5016028;28;20029;-71
2022/04/03 10:20:16;;;;;;;2.40;1.17;;;6.80;33.50;;;;;;5033930;28;20030;-71
2022/04/03 10:22:45;;;;;;;2.85;1.85;;;7.00;32.10;;;;;;5033998;28;20029;-71
2022/04/03 10:25:14;;;;;;;2.85;1.30;;;7.20;31.80;;;;;;5038265;28;20041;-71
2022/04/03 10:27:42;;;;;;;5.63;1.95;;;7.80;32.80;;;;;;5043910;28;20052;-71
2022/04/03 10:30:10;;;;;;;2.70;1.23;;;8.00;31.40;;;;;;5038830;28;20103;-71
2022/04/03 10:32:36;;;;;;;2.90;1.15;;;8.20;34.60;;;;;;5038051;28;20152;-71
2022/04/03 10:35:08;;;;;;;3.25;1.15;;;8.30;33.70;;;;;;5015342;28;20040;-73
2022/04/03 10:37:43;;;;;;;2.85;1.20;;;8.50;33.50;;;;;;5015198;28;20103;-71
2022/04/03 10:40:17;;;;;;;2.80;1.42;;;8.60;33.20;;;;;;5033620;28;20029;-71
2022/04/03 10:42:50;;;;;;;2.92;1.58;;;8.80;32.70;;;;;;5015646;28;20030;-69
2022/04/03 10:45:17;;;;;;;4.10;2.50;;;8.60;32.30;;;;;;5033455;28;20491;-71
2022/04/03 10:47:43;;;;;;;1.58;1.25;;;8.80;31.40;;;;;;5033200;28;20177;-72
2022/04/03 10:50:11;;;;;;;1.17;1.08;;;8.90;32.30;;;;;;5033352;28;20053;-70
2022/04/03 10:52:36;;;;;;;2.72;1.50;;;8.90;31.90;;;;;;5033445;28;20297;-71
2022/04/03 10:55:10;;;;;;;2.67;1.23;;;9.00;30.10;;;;;;5033515;28;20032;-71
2022/04/03 10:57:42;;;;;;;2.38;1.13;;;8.80;32.40;;;;;;5033121;28;20113;-71
2022/04/03 11:00:14;;;;;;;3.05;1.42;;;8.80;30.00;;;;;;5033111;28;20059;-71
2022/04/03 11:02:44;;;;;;;3.40;1.67;;;8.40;30.20;;;;;;5015162;28;20029;-72
2022/04/03 11:05:21;;;;;;;2.13;1.58;;;8.40;31.60;;;;;;5033202;28;20029;-72
2022/04/03 11:07:51;;;;;;;2.78;1.42;;;8.30;30.30;;;;;;5032714;28;20025;-71
2022/04/03 11:10:57;;;;;;;2.17;1.20;;;8.50;32.20;;;;;;5045577;28;20033;-72
2022/04/03 11:13:34;;;;;;;3.88;1.40;;;8.70;31.70;;;;;;5032752;28;20090;-72
2022/04/03 11:16:11;;;;;;;2.50;1.77;;;9.00;32.60;;;;;;5035564;28;20120;-71
2022/04/03 11:18:36;;;;;;;4.72;1.90;;;9.00;32.40;;;;;;5032744;28;20029;-70
2022/04/03 11:21:14;;;;;;;2.42;2.08;;;9.00;31.10;;;;;;5032558;28;20032;-72
2022/04/03 11:23:52;;;;;;;2.47;1.60;;;9.10;32.90;;;;;;5032766;28;20025;-71
2022/04/03 11:26:18;;;;;;;2.45;1.40;;;9.00;33.00;;;;;;5032413;28;20025;-71
2022/04/03 11:28:45;;;;;;;4.60;1.42;;;9.10;31.10;;;;;;5033896;28;20479;-72
2022/04/03 11:31:11;;;;;;;2.78;1.30;;;9.00;30.30;;;;;;5032466;28;20484;-71
2022/04/03 11:33:38;;;;;;;4.05;1.67;;;8.80;30.90;;;;;;5032697;28;20022;-71
2022/04/03 11:36:12;;;;;;;2.65;1.65;;;8.80;32.60;;;;;;5032101;28;20079;-71
2022/04/03 11:38:46;;;;;;;4.68;1.60;;;9.00;33.90;;;;;;5032089;28;20079;-70
2022/04/03 11:41:15;;;;;;;2.00;1.55;;;8.90;32.70;;;;;;5040679;28;20406;-72
2022/04/03 11:43:41;;;;;;;1.83;1.52;;;8.80;33.20;;;;;;5040700;28;20030;-72
2022/04/03 11:46:09;;;;;;;2.88;1.50;;;8.50;32.60;;;;;;5030574;28;20036;-72
2022/04/03 11:48:45;;;;;;;2.47;2.05;;;8.20;33.60;;;;;;5030099;28;20100;-72
2022/04/03 11:51:17;;;;;;;3.05;1.83;;;8.00;33.20;;;;;;5014936;28;20055;-70
2022/04/03 11:53:45;;;;;;;2.35;1.67;;;8.00;36.00;;;;;;5032117;28;20112;-71
2022/04/03 11:56:12;;;;;;;6.10;2.15;;;8.10;35.50;;;;;;5031927;28;20041;-71
2022/04/03 11:58:45;;;;;;;3.50;1.67;;;8.20;37.10;;;;;;5031806;28;20048;-72
2022/04/03 12:01:12;;;;;;;4.35;2.15;;;8.50;33.90;;;;;;5032129;28;20040;-73
2022/04/03 12:03:38;;;;;;;4.78;2.50;;;8.40;35.10;;;;;;5032124;28;20395;-73
2022/04/03 12:06:11;;;;;;;4.07;2.13;;;8.20;33.10;;;;;;5031339;28;20030;-73
2022/04/03 12:08:41;;;;;;;2.28;1.58;;;8.20;34.00;;;;;;5017045;28;20506;-71
2022/04/03 12:11:25;;;;;;;1.83;1.60;;;8.30;35.00;;;;;;5047803;28;20487;-72
2022/04/03 12:13:59;;;;;;;2.47;1.60;;;8.20;32.90;;;;;;5040522;28;20029;-72
2022/04/03 12:16:27;;;;;;;4.78;2.03;;;8.10;34.10;;;;;;5037600;28;20048;-72
2022/04/03 12:19:04;;;;;;;4.75;1.90;;;8.10;32.90;;;;;;5013490;28;20029;-72
2022/04/03 12:21:43;;;;;;;3.45;1.80;;;8.10;35.30;;;;;;5031967;28;20017;-72
2022/04/03 12:24:13;;;;;;;6.57;2.10;;;7.90;34.50;;;;;;5032309;28;20022;-74
2022/04/03 12:26:50;;;;;;;4.00;1.65;;;7.80;36.10;;;;;;5024121;28;20178;-72
2022/04/03 12:29:17;;;;;;;3.13;1.98;;;7.90;35.70;;;;;;5031220;28;20064;-72
2022/04/03 12:31:54;;;;;;;2.85;2.00;;;8.00;36.30;;;;;;5031181;28;20105;-72
2022/04/03 12:34:21;;;;;;;4.03;2.00;;;8.30;34.70;;;;;;5031138;28;20022;-71
2022/04/03 12:36:49;;;;;;;2.58;1.52;;;8.40;34.50;;;;;;5030986;28;20121;-73
2022/04/03 12:39:35;;;;;;;4.75;1.75;;;8.50;33.90;;;;;;5041185;28;20060;-71
2022/04/03 12:42:21;;;;;;;3.55;1.90;;;8.40;33.60;;;;;;5013692;28;20014;-70
2022/04/03 12:44:53;;;;;;;3.70;1.67;;;8.70;33.30;;;;;;5031191;28;20030;-71
2022/04/03 12:47:35;;;;;;;6.70;1.98;;;8.90;32.20;;;;;;5031018;28;20030;-72
2022/04/03 12:50:06;;;;;;;;;;;8.80;32.70;;;;;;5030323;28;20301;-72